Time;durP1;ratioP1;P1;durP2;ratioP2;P2;SDS_P1;SDS_P2;PMS_P1;PMS_P2;Temp;Humidity;BMP_temperature;BMP_pressure;BME280_temperature;BME280_humidity;BME280_pressure;Samples;Min_cycle;Max_cycle;Signal;HPM_P1;HPM_P2
2023/06/18 00:01:59;;;;;;;14.93;7.85;;;14.00;99.90;;;;;;5066655;28;20072;-59
2023/06/18 00:04:26;;;;;;;12.57;8.65;;;13.90;99.90;;;;;;5073069;28;20396;-59
2023/06/18 00:06:56;;;;;;;14.63;8.45;;;13.80;99.90;;;;;;5059458;28;20044;-59
2023/06/18 00:09:23;;;;;;;12.20;8.23;;;13.80;99.90;;;;;;5070560;28;20271;-59
2023/06/18 00:11:50;;;;;;;11.68;7.90;;;13.80;99.90;;;;;;5067768;28;20047;-60
2023/06/18 00:14:18;;;;;;;12.68;7.57;;;13.80;99.90;;;;;;5061847;28;20040;-59
2023/06/18 00:16:45;;;;;;;13.63;7.40;;;13.70;99.90;;;;;;5056587;28;20049;-59
2023/06/18 00:19:13;;;;;;;15.45;7.78;;;13.70;99.90;;;;;;5068358;28;20059;-59
2023/06/18 00:21:40;;;;;;;11.48;8.10;;;13.70;99.90;;;;;;5065673;28;20032;-59
2023/06/18 00:24:06;;;;;;;11.70;7.97;;;13.60;99.90;;;;;;5073680;28;20036;-59
2023/06/18 00:26:33;;;;;;;12.95;8.35;;;13.60;99.90;;;;;;5059666;28;20045;-59
2023/06/18 00:29:01;;;;;;;14.85;8.13;;;13.60;99.90;;;;;;5055372;28;20647;-60
2023/06/18 00:31:28;;;;;;;11.68;8.13;;;13.50;99.90;;;;;;5062376;28;20064;-59
2023/06/18 00:33:55;;;;;;;11.13;8.07;;;13.50;99.90;;;;;;5072242;28;20055;-58
2023/06/18 00:36:26;;;;;;;13.18;8.57;;;13.50;99.90;;;;;;5069332;28;20033;-59
2023/06/18 00:38:53;;;;;;;11.98;8.20;;;13.50;99.90;;;;;;5050346;28;20041;-60
2023/06/18 00:41:20;;;;;;;15.18;8.75;;;13.50;99.90;;;;;;5061296;28;20036;-60
2023/06/18 00:43:47;;;;;;;13.27;8.55;;;13.40;99.90;;;;;;5060833;28;20513;-60
2023/06/18 00:46:14;;;;;;;12.40;8.38;;;13.40;99.90;;;;;;5066966;28;20374;-59
2023/06/18 00:48:41;;;;;;;;;;;13.40;99.90;;;;;;5043013;28;20053;-59
2023/06/18 00:51:10;;;;;;;13.90;8.82;;;13.30;99.90;;;;;;5049585;28;19952;-60
2023/06/18 00:53:37;;;;;;;12.40;8.68;;;13.20;99.90;;;;;;5053634;28;20041;-59
2023/06/18 00:56:04;;;;;;;;;;;13.20;99.90;;;;;;5069568;28;20044;-58
2023/06/18 00:58:31;;;;;;;13.93;8.63;;;13.10;99.90;;;;;;5054259;28;19921;-59
2023/06/18 01:00:59;;;;;;;13.98;9.02;;;13.00;99.90;;;;;;5047860;28;20045;-59
2023/06/18 01:03:26;;;;;;;12.90;9.10;;;12.80;99.90;;;;;;5063009;28;20036;-59
2023/06/18 01:05:58;;;;;;;15.60;9.82;;;12.60;99.90;;;;;;5027750;28;20053;-59
2023/06/18 01:08:25;;;;;;;14.25;9.02;;;12.50;99.90;;;;;;5067879;28;20032;-60
2023/06/18 01:11:18;;;;;;;15.70;8.60;;;12.60;99.90;;;;;;5054483;28;20075;-59
2023/06/18 01:13:46;;;;;;;14.02;9.23;;;12.30;99.90;;;;;;5055694;28;20567;-59
2023/06/18 01:16:13;;;;;;;;;;;12.40;99.90;;;;;;5048335;28;20044;-59
2023/06/18 01:18:50;;;;;;;16.00;10.75;;;12.50;99.90;;;;;;5044556;28;19924;-59
2023/06/18 01:21:20;;;;;;;15.80;10.32;;;12.70;99.90;;;;;;5067164;28;20041;-60
2023/06/18 01:23:54;;;;;;;15.93;10.52;;;12.90;99.90;;;;;;5063587;28;20032;-59
2023/06/18 01:26:22;;;;;;;16.48;10.27;;;13.00;99.90;;;;;;5046117;28;20045;-59
2023/06/18 01:28:51;;;;;;;14.77;10.30;;;13.00;99.90;;;;;;5063925;28;20032;-59
2023/06/18 01:31:24;;;;;;;17.58;10.80;;;13.10;99.90;;;;;;5062581;28;20440;-57
2023/06/18 01:33:54;;;;;;;20.73;10.85;;;13.10;99.90;;;;;;5056320;28;20371;-57
2023/06/18 01:36:37;;;;;;;19.08;10.73;;;13.20;99.90;;;;;;5059068;28;20055;-60
2023/06/18 01:39:30;;;;;;;15.82;10.48;;;13.20;99.90;;;;;;5039967;28;20074;-59
2023/06/18 01:42:06;;;;;;;12.30;8.63;;;13.20;99.90;;;;;;5015563;28;20532;-60
2023/06/18 01:44:35;;;;;;;16.77;8.88;;;13.10;99.90;;;;;;5058650;28;20045;-60
2023/06/18 01:47:03;;;;;;;14.20;9.95;;;12.90;99.90;;;;;;5053715;28;20044;-60
2023/06/18 01:49:32;;;;;;;14.43;10.20;;;12.80;99.90;;;;;;5036811;28;20045;-60
2023/06/18 01:52:03;;;;;;;17.30;10.25;;;12.70;99.90;;;;;;5035859;28;20397;-60
2023/06/18 01:54:31;;;;;;;16.17;9.35;;;12.70;99.90;;;;;;5060452;28;20476;-60
2023/06/18 01:56:57;;;;;;;15.15;8.93;;;12.60;99.90;;;;;;5046302;28;20037;-60
2023/06/18 01:59:25;;;;;;;13.52;9.80;;;12.50;99.90;;;;;;5053972;28;20503;-60
2023/06/18 02:01:52;;;;;;;16.00;9.25;;;12.40;99.90;;;;;;5048262;28;20514;-59
2023/06/18 02:04:20;;;;;;;16.42;10.32;;;12.40;99.90;;;;;;5064592;28;20448;-60
2023/06/18 02:06:46;;;;;;;18.77;10.75;;;12.40;99.90;;;;;;5048806;28;20467;-60
2023/06/18 02:09:13;;;;;;;15.95;10.38;;;12.40;99.90;;;;;;5044898;28;20516;-60
2023/06/18 02:11:40;;;;;;;14.30;9.45;;;12.40;99.90;;;;;;5049874;28;20048;-60
2023/06/18 02:14:07;;;;;;;16.08;9.48;;;12.50;99.90;;;;;;5050871;28;20037;-60
2023/06/18 02:16:34;;;;;;;17.58;10.13;;;12.40;99.90;;;;;;5034026;28;20485;-60
2023/06/18 02:19:01;;;;;;;18.55;11.40;;;12.40;99.90;;;;;;5048920;28;20057;-59
2023/06/18 02:21:28;;;;;;;22.33;12.68;;;12.40;99.90;;;;;;5059201;28;20040;-60
2023/06/18 02:23:56;;;;;;;21.98;12.50;;;12.40;99.90;;;;;;5052337;28;20036;-60
2023/06/18 02:26:22;;;;;;;;;;;12.40;99.90;;;;;;5053637;28;20056;-60
2023/06/18 02:28:52;;;;;;;19.30;12.07;;;12.40;99.90;;;;;;5059702;28;20335;-60
2023/06/18 02:31:19;;;;;;;19.52;12.65;;;12.40;99.90;;;;;;5065677;28;20055;-60
2023/06/18 02:33:45;;;;;;;19.55;12.77;;;12.40;99.90;;;;;;5050360;28;20044;-60
2023/06/18 02:36:13;;;;;;;20.48;12.60;;;12.40;99.90;;;;;;5065129;28;20119;-60
2023/06/18 02:38:40;;;;;;;21.98;12.68;;;12.30;99.90;;;;;;5051363;28;20051;-60
2023/06/18 02:41:07;;;;;;;29.70;14.73;;;12.30;99.90;;;;;;5062700;28;20043;-60
2023/06/18 02:43:36;;;;;;;19.70;12.93;;;12.20;99.90;;;;;;5052711;28;20051;-60
2023/06/18 02:46:03;;;;;;;18.42;12.57;;;12.20;99.90;;;;;;5053409;28;20044;-60
2023/06/18 02:48:30;;;;;;;19.05;12.63;;;12.20;99.90;;;;;;5042936;28;20047;-60
2023/06/18 02:50:56;;;;;;;22.20;12.48;;;12.20;99.90;;;;;;5045357;28;20055;-59
2023/06/18 02:53:23;;;;;;;22.02;11.77;;;12.10;99.90;;;;;;5050848;28;20090;-60
2023/06/18 02:55:50;;;;;;;20.08;13.10;;;12.00;99.90;;;;;;5052683;28;20048;-60
2023/06/18 02:58:27;;;;;;;17.33;12.20;;;12.00;99.90;;;;;;5051342;28;20401;-60
2023/06/18 03:00:56;;;;;;;18.27;12.43;;;12.00;99.90;;;;;;5049605;28;20048;-59
2023/06/18 03:03:23;;;;;;;18.45;11.48;;;12.00;99.90;;;;;;5032236;28;20049;-59
2023/06/18 03:05:53;;;;;;;20.67;12.52;;;12.00;99.90;;;;;;5049865;28;20044;-59
2023/06/18 03:08:20;;;;;;;18.88;11.98;;;12.00;99.90;;;;;;5045557;28;20274;-60
2023/06/18 03:10:51;;;;;;;16.17;11.60;;;12.00;99.90;;;;;;5049808;28;20052;-60
2023/06/18 03:13:18;;;;;;;20.38;12.65;;;12.00;99.90;;;;;;5043338;28;20140;-60
2023/06/18 03:15:48;;;;;;;22.92;11.90;;;12.00;99.90;;;;;;5052082;28;20040;-59
2023/06/18 03:18:17;;;;;;;17.98;12.63;;;12.00;99.90;;;;;;5052109;28;20047;-59
2023/06/18 03:20:45;;;;;;;18.52;12.25;;;11.90;99.90;;;;;;5040697;28;20041;-60
2023/06/18 03:23:11;;;;;;;17.35;12.02;;;11.90;99.90;;;;;;5052119;28;20094;-60
2023/06/18 03:25:42;;;;;;;21.00;12.55;;;11.90;99.90;;;;;;5038753;28;20409;-60
2023/06/18 03:28:15;;;;;;;20.20;11.98;;;11.90;99.90;;;;;;5047459;28;20052;-59
2023/06/18 03:30:43;;;;;;;20.52;12.57;;;11.90;99.90;;;;;;5059081;28;20040;-59
2023/06/18 03:33:11;;;;;;;17.60;12.07;;;12.00;99.90;;;;;;5054971;28;20045;-60
2023/06/18 03:35:40;;;;;;;21.90;13.60;;;12.00;99.90;;;;;;5040863;28;20099;-60
2023/06/18 03:38:08;;;;;;;20.80;12.18;;;12.00;99.90;;;;;;5055416;28;20551;-60
2023/06/18 03:40:35;;;;;;;20.30;12.43;;;12.00;99.90;;;;;;5052798;28;20045;-60
2023/06/18 03:43:02;;;;;;;20.25;12.85;;;12.00;99.90;;;;;;5045896;28;20505;-59
2023/06/18 03:45:29;;;;;;;20.25;12.30;;;12.00;99.90;;;;;;5055059;28;20051;-60
2023/06/18 03:47:56;;;;;;;17.45;12.00;;;12.00;99.90;;;;;;5046704;28;20064;-59
2023/06/18 03:50:25;;;;;;;18.00;11.95;;;12.00;99.90;;;;;;5050725;28;20480;-59
2023/06/18 03:52:52;;;;;;;17.13;11.02;;;12.00;99.90;;;;;;5054544;28;20036;-60
2023/06/18 03:55:19;;;;;;;18.20;11.95;;;12.00;99.90;;;;;;5048772;28;20049;-59
2023/06/18 03:57:47;;;;;;;18.83;12.52;;;12.00;99.90;;;;;;5050998;28;20040;-59
2023/06/18 04:00:14;;;;;;;20.15;12.75;;;12.00;99.90;;;;;;5040123;28;20045;-59
2023/06/18 04:02:42;;;;;;;17.92;12.13;;;12.00;99.90;;;;;;5044786;28;20047;-59
2023/06/18 04:05:15;;;;;;;19.15;12.02;;;12.10;99.90;;;;;;5040256;28;20053;-59
2023/06/18 04:07:42;;;;;;;19.00;12.30;;;12.00;99.90;;;;;;5071065;28;20047;-59
2023/06/18 04:10:09;;;;;;;17.40;11.82;;;12.10;99.90;;;;;;5052228;28;20044;-60
2023/06/18 04:12:36;;;;;;;17.92;11.88;;;12.10;99.90;;;;;;5061637;28;20051;-60
2023/06/18 04:15:03;;;;;;;19.40;12.15;;;12.20;99.90;;;;;;5034490;28;20131;-60
2023/06/18 04:17:39;;;;;;;15.82;11.60;;;12.20;99.90;;;;;;5050498;28;20098;-60
2023/06/18 04:20:08;;;;;;;20.23;11.98;;;12.30;99.90;;;;;;5038809;28;20033;-59
2023/06/18 04:22:35;;;;;;;21.02;12.68;;;12.30;99.90;;;;;;5050685;28;20075;-59
2023/06/18 04:25:02;;;;;;;18.23;11.43;;;12.40;99.90;;;;;;5061330;28;20037;-59
2023/06/18 04:27:30;;;;;;;16.95;11.57;;;12.40;99.90;;;;;;5050393;28;20052;-60
2023/06/18 04:29:57;;;;;;;16.83;12.18;;;12.40;99.90;;;;;;5054270;28;20135;-58
2023/06/18 04:32:24;;;;;;;15.35;11.43;;;12.40;99.90;;;;;;5049635;28;20051;-56
2023/06/18 04:34:54;;;;;;;19.83;11.80;;;12.50;99.90;;;;;;5049611;28;20040;-59
2023/06/18 04:37:21;;;;;;;;;;;12.50;99.90;;;;;;5048790;28;20132;-59
2023/06/18 04:39:48;;;;;;;17.00;11.30;;;12.50;99.90;;;;;;5061598;28;19967;-59
2023/06/18 04:42:15;;;;;;;18.17;11.25;;;12.50;99.90;;;;;;5050841;28;20497;-60
2023/06/18 04:44:42;;;;;;;;;;;12.60;99.90;;;;;;5045513;28;20041;-59
2023/06/18 04:47:11;;;;;;;;;;;12.70;99.90;;;;;;5053191;28;19924;-59
2023/06/18 04:49:38;;;;;;;17.33;11.02;;;12.80;99.90;;;;;;5052307;28;20388;-59
2023/06/18 04:52:05;;;;;;;19.77;11.75;;;12.90;99.90;;;;;;5069116;28;20116;-59
2023/06/18 04:54:33;;;;;;;18.25;11.70;;;13.00;99.90;;;;;;5050395;28;20155;-58
2023/06/18 04:57:00;;;;;;;15.98;10.70;;;13.10;99.90;;;;;;5048847;28;20029;-59
2023/06/18 04:59:28;;;;;;;16.13;11.07;;;13.10;99.90;;;;;;5070870;28;20063;-59
2023/06/18 05:01:55;;;;;;;17.15;10.75;;;13.40;99.90;;;;;;5047013;28;20398;-59
2023/06/18 05:04:22;;;;;;;16.73;11.02;;;13.30;99.90;;;;;;5071114;28;20059;-59
2023/06/18 05:06:49;;;;;;;16.60;11.10;;;13.40;99.90;;;;;;5051959;28;20055;-60
2023/06/18 05:09:18;;;;;;;16.00;11.32;;;13.50;99.90;;;;;;5046547;28;20068;-59
2023/06/18 05:11:45;;;;;;;17.77;11.98;;;13.60;99.90;;;;;;5052834;28;20040;-58
2023/06/18 05:14:12;;;;;;;16.30;11.27;;;13.60;99.90;;;;;;5066951;28;20063;-59
2023/06/18 05:16:39;;;;;;;19.35;11.50;;;13.70;99.90;;;;;;5043816;28;20041;-59
2023/06/18 05:19:05;;;;;;;17.80;11.65;;;13.70;99.90;;;;;;5049821;28;20555;-59
2023/06/18 05:21:32;;;;;;;15.23;11.02;;;13.80;99.90;;;;;;5033660;28;20049;-59
2023/06/18 05:23:59;;;;;;;17.63;11.32;;;13.90;99.90;;;;;;5045386;28;20417;-59
2023/06/18 05:26:27;;;;;;;17.58;10.70;;;13.90;99.90;;;;;;5060074;28;20049;-59
2023/06/18 05:28:55;;;;;;;17.95;10.80;;;14.00;99.90;;;;;;5051123;28;20044;-58
2023/06/18 05:31:21;;;;;;;16.13;10.75;;;14.00;99.90;;;;;;5049846;28;20139;-60
2023/06/18 05:33:49;;;;;;;16.90;10.93;;;14.10;99.90;;;;;;5039937;28;20040;-60
2023/06/18 05:36:15;;;;;;;15.63;11.40;;;14.20;99.90;;;;;;5046921;28;20071;-60
2023/06/18 05:38:42;;;;;;;16.20;10.80;;;14.20;99.90;;;;;;5044094;28;20040;-57
2023/06/18 05:41:09;;;;;;;17.45;10.13;;;14.30;99.90;;;;;;5041586;28;20068;-59
2023/06/18 05:43:36;;;;;;;16.95;10.23;;;14.20;99.90;;;;;;5039988;28;20086;-58
2023/06/18 05:46:03;;;;;;;16.95;11.20;;;14.30;99.90;;;;;;5048036;28;20051;-60
2023/06/18 05:48:30;;;;;;;16.42;10.48;;;14.40;99.90;;;;;;5044243;28;20036;-59
2023/06/18 05:51:23;;;;;;;17.63;10.90;;;14.40;99.90;;;;;;5046565;28;20079;-60
2023/06/18 05:53:50;;;;;;;17.02;10.60;;;14.40;99.90;;;;;;5048721;28;20072;-59
2023/06/18 05:56:17;;;;;;;15.85;10.80;;;14.70;99.90;;;;;;5032263;28;20083;-60
2023/06/18 05:58:45;;;;;;;15.60;10.80;;;14.50;99.90;;;;;;5048323;28;20545;-60
2023/06/18 06:01:12;;;;;;;18.00;10.65;;;15.00;99.90;;;;;;5043675;28;20420;-59
2023/06/18 06:03:39;;;;;;;17.90;11.05;;;14.80;99.90;;;;;;5039869;28;20063;-60
2023/06/18 06:06:07;;;;;;;14.45;9.95;;;14.90;99.90;;;;;;5043901;28;20067;-58
2023/06/18 06:08:34;;;;;;;18.30;10.68;;;15.00;99.90;;;;;;5035956;28;20056;-58
2023/06/18 06:11:04;;;;;;;14.35;9.70;;;15.10;99.90;;;;;;5033106;28;20040;-59
2023/06/18 06:13:32;;;;;;;15.32;10.27;;;15.20;99.90;;;;;;5039494;28;20421;-59
2023/06/18 06:16:05;;;;;;;15.77;10.63;;;15.20;99.90;;;;;;5051629;28;20037;-59
2023/06/18 06:18:32;;;;;;;16.80;10.13;;;15.40;99.90;;;;;;5054741;28;20498;-58
2023/06/18 06:20:59;;;;;;;17.80;10.38;;;15.40;99.90;;;;;;5036733;28;20465;-59
2023/06/18 06:23:26;;;;;;;21.45;10.50;;;15.50;99.90;;;;;;5045291;28;20409;-60
2023/06/18 06:25:53;;;;;;;16.80;10.13;;;15.70;99.90;;;;;;5049059;28;20051;-60
2023/06/18 06:28:21;;;;;;;14.20;10.15;;;15.80;99.90;;;;;;5032817;28;20048;-59
2023/06/18 06:30:49;;;;;;;20.92;10.88;;;15.90;99.90;;;;;;5041121;28;20044;-59
2023/06/18 06:33:16;;;;;;;16.15;10.85;;;16.00;99.90;;;;;;5045771;28;20055;-59
2023/06/18 06:35:43;;;;;;;16.13;10.40;;;16.10;99.90;;;;;;5051071;28;20058;-58
2023/06/18 06:38:12;;;;;;;17.67;11.45;;;16.20;99.90;;;;;;5032092;28;20041;-59
2023/06/18 06:40:39;;;;;;;;;;;16.40;99.90;;;;;;5032516;28;20071;-59
2023/06/18 06:43:05;;;;;;;17.20;10.32;;;16.60;99.90;;;;;;5048982;28;20381;-60
2023/06/18 06:45:45;;;;;;;13.88;10.13;;;16.60;99.90;;;;;;5041231;28;20049;-59
2023/06/18 06:48:48;;;;;;;14.95;10.15;;;16.80;99.90;;;;;;4986806;28;20064;-60
2023/06/18 06:51:44;;;;;;;14.77;9.77;;;17.00;99.90;;;;;;4980634;28;20530;-58
2023/06/18 06:54:12;;;;;;;14.70;10.05;;;17.10;99.90;;;;;;5048555;28;20076;-60
2023/06/18 06:56:39;;;;;;;11.30;9.00;;;17.40;99.90;;;;;;5049403;28;20512;-59
2023/06/18 06:59:08;;;;;;;14.07;9.63;;;17.30;99.90;;;;;;5047732;28;20037;-58
2023/06/18 07:01:35;;;;;;;15.27;9.77;;;17.40;99.90;;;;;;5066632;28;20044;-60
2023/06/18 07:04:03;;;;;;;13.93;9.38;;;17.60;99.90;;;;;;5065886;28;20122;-59
2023/06/18 07:06:30;;;;;;;13.32;9.45;;;17.80;99.90;;;;;;5059224;28;20513;-59
2023/06/18 07:08:57;;;;;;;12.40;9.18;;;17.90;99.90;;;;;;5055690;28;20045;-61
2023/06/18 07:11:24;;;;;;;18.50;10.05;;;18.00;99.90;;;;;;5070067;28;20490;-60
2023/06/18 07:13:51;;;;;;;14.77;9.20;;;17.80;99.90;;;;;;5054906;28;20053;-59
2023/06/18 07:16:18;;;;;;;13.65;9.48;;;18.00;99.90;;;;;;5069677;28;20040;-59
2023/06/18 07:18:45;;;;;;;12.65;9.82;;;18.20;99.90;;;;;;5062105;28;20049;-59
2023/06/18 07:21:11;;;;;;;15.23;10.35;;;18.30;99.90;;;;;;5071517;28;20048;-60
2023/06/18 07:23:39;;;;;;;12.23;9.20;;;18.50;99.90;;;;;;5068080;28;20049;-60
2023/06/18 07:26:05;;;;;;;;;;;18.60;99.90;;;;;;5074740;28;20049;-60
2023/06/18 07:28:32;;;;;;;13.77;9.50;;;18.80;99.90;;;;;;5064266;28;19931;-60
2023/06/18 07:30:59;;;;;;;14.63;9.23;;;19.00;99.90;;;;;;5064986;28;20041;-59
2023/06/18 07:33:26;;;;;;;15.90;9.43;;;19.10;99.90;;;;;;5062253;28;20413;-59
2023/06/18 07:35:52;;;;;;;11.85;8.40;;;19.10;99.90;;;;;;5070361;28;20489;-59
2023/06/18 07:38:19;;;;;;;16.25;8.68;;;19.20;99.90;;;;;;5066170;28;20040;-59
2023/06/18 07:40:46;;;;;;;13.75;8.50;;;19.30;99.90;;;;;;5065197;28;20037;-59
2023/06/18 07:43:13;;;;;;;14.35;9.00;;;19.40;99.90;;;;;;5071850;28;20040;-59
2023/06/18 07:45:39;;;;;;;11.52;8.65;;;19.60;99.90;;;;;;5066448;28;20045;-60
2023/06/18 07:48:07;;;;;;;14.63;8.75;;;19.70;99.90;;;;;;5069711;28;20974;-60
2023/06/18 07:50:35;;;;;;;12.73;8.70;;;19.80;99.90;;;;;;5068258;28;20037;-59
2023/06/18 07:53:03;;;;;;;13.30;8.75;;;20.00;99.90;;;;;;5059403;28;20404;-61
2023/06/18 07:55:29;;;;;;;13.68;8.85;;;20.30;99.90;;;;;;5059381;28;20055;-60
2023/06/18 07:57:56;;;;;;;10.82;8.55;;;20.50;99.90;;;;;;5071851;28;20037;-61
2023/06/18 08:00:23;;;;;;;10.35;8.15;;;20.70;99.90;;;;;;5055951;28;20045;-61
2023/06/18 08:02:51;;;;;;;11.27;8.65;;;20.80;99.90;;;;;;5070056;28;20443;-59
2023/06/18 08:05:18;;;;;;;12.68;8.85;;;21.00;99.90;;;;;;5067207;28;20234;-60
2023/06/18 08:07:45;;;;;;;10.93;8.43;;;21.20;99.90;;;;;;5061761;28;20048;-60
2023/06/18 08:10:11;;;;;;;10.27;7.75;;;21.20;99.20;;;;;;5069250;28;20536;-60
2023/06/18 08:12:38;;;;;;;10.43;7.40;;;21.30;98.60;;;;;;5067756;28;20507;-61
2023/06/18 08:15:05;;;;;;;11.57;8.38;;;21.40;97.40;;;;;;5070899;28;20044;-60
2023/06/18 08:17:32;;;;;;;13.18;8.40;;;21.60;97.30;;;;;;5058885;28;20151;-60
2023/06/18 08:19:59;;;;;;;11.63;8.52;;;21.60;98.30;;;;;;5070283;28;20033;-60
2023/06/18 08:22:26;;;;;;;13.20;8.60;;;21.60;97.30;;;;;;5066090;28;20402;-60
2023/06/18 08:24:53;;;;;;;9.73;7.70;;;21.60;97.20;;;;;;5059726;28;20045;-60
2023/06/18 08:27:19;;;;;;;15.23;8.80;;;21.70;97.60;;;;;;5065960;28;20048;-61
2023/06/18 08:29:46;;;;;;;12.98;8.68;;;21.80;97.90;;;;;;5055970;28;20048;-59
2023/06/18 08:32:13;;;;;;;14.43;8.65;;;22.00;97.90;;;;;;5068769;28;20055;-60
2023/06/18 08:34:45;;;;;;;10.95;7.78;;;22.10;98.10;;;;;;5064888;28;20053;-60
2023/06/18 08:37:12;;;;;;;11.13;7.93;;;22.20;96.70;;;;;;5070116;28;20037;-60
2023/06/18 08:39:39;;;;;;;9.70;7.40;;;22.30;95.90;;;;;;5056262;28;20493;-60
2023/06/18 08:42:06;;;;;;;14.82;7.63;;;22.40;94.80;;;;;;5069059;28;20123;-59
2023/06/18 08:44:34;;;;;;;;;;;22.60;95.60;;;;;;5061545;28;20048;-60
2023/06/18 08:47:05;;;;;;;11.75;8.27;;;22.60;94.80;;;;;;5069513;28;20007;-61
2023/06/18 08:49:33;;;;;;;11.40;8.23;;;22.70;95.20;;;;;;5059939;28;20060;-59
2023/06/18 08:52:08;;;;;;;10.32;7.90;;;22.80;93.90;;;;;;5054130;28;20049;-60
2023/06/18 08:54:37;;;;;;;13.75;7.90;;;22.80;94.50;;;;;;5072078;28;20044;-60
2023/06/18 08:57:26;;;;;;;13.85;7.78;;;23.00;96.70;;;;;;5063246;28;20052;-60
2023/06/18 08:59:54;;;;;;;12.60;8.43;;;23.20;97.30;;;;;;5063402;28;20037;-61
2023/06/18 09:02:21;;;;;;;9.80;7.70;;;23.40;95.30;;;;;;5072129;28;20045;-60
2023/06/18 09:04:49;;;;;;;11.98;8.35;;;23.40;93.10;;;;;;5071071;28;20512;-58
2023/06/18 09:07:17;;;;;;;9.55;7.70;;;23.60;96.20;;;;;;5054751;28;20047;-60
2023/06/18 09:09:45;;;;;;;11.15;7.50;;;23.60;95.20;;;;;;5064080;28;20050;-60
2023/06/18 09:12:12;;;;;;;12.15;8.25;;;23.60;93.10;;;;;;5035936;28;20051;-60
2023/06/18 09:14:39;;;;;;;10.48;8.05;;;23.70;93.20;;;;;;5063346;28;20051;-60
2023/06/18 09:17:06;;;;;;;11.68;8.20;;;23.90;94.90;;;;;;5060786;28;20040;-60
2023/06/18 09:19:34;;;;;;;9.85;7.60;;;24.00;93.20;;;;;;5065628;28;20432;-60
2023/06/18 09:22:18;;;;;;;9.80;7.50;;;24.00;93.00;;;;;;5068906;28;20042;-61
2023/06/18 09:24:57;;;;;;;12.07;7.85;;;24.00;92.40;;;;;;5045467;28;20513;-61
2023/06/18 09:27:32;;;;;;;13.20;8.18;;;24.30;92.70;;;;;;5050894;28;20045;-60
2023/06/18 09:29:59;;;;;;;11.85;8.05;;;24.20;90.70;;;;;;5063434;28;20055;-60
2023/06/18 09:32:26;;;;;;;12.00;8.55;;;24.30;92.70;;;;;;5063815;28;20127;-58
2023/06/18 09:34:53;;;;;;;;;;;24.40;92.40;;;;;;5063165;28;20049;-59
2023/06/18 09:37:20;;;;;;;9.27;7.60;;;24.50;92.10;;;;;;5054703;28;19920;-58
2023/06/18 09:39:46;;;;;;;10.30;8.05;;;24.30;92.20;;;;;;5060996;28;20509;-59
2023/06/18 09:42:13;;;;;;;14.25;8.70;;;24.30;92.70;;;;;;5069977;28;20572;-59
2023/06/18 09:44:45;;;;;;;12.88;8.07;;;24.30;92.90;;;;;;5056514;28;20052;-60
2023/06/18 09:47:14;;;;;;;11.02;8.23;;;24.40;93.20;;;;;;5062214;28;20048;-59
2023/06/18 09:49:46;;;;;;;12.75;8.25;;;24.40;92.90;;;;;;5052756;28;20500;-60
2023/06/18 09:52:16;;;;;;;12.73;7.55;;;24.60;90.90;;;;;;5036082;28;20063;-60
2023/06/18 09:54:44;;;;;;;10.60;7.50;;;24.60;90.00;;;;;;5043587;28;20451;-60
2023/06/18 09:57:13;;;;;;;12.73;7.85;;;24.80;85.80;;;;;;5063292;28;20417;-59
2023/06/18 09:59:40;;;;;;;10.15;7.80;;;25.00;84.00;;;;;;5071104;28;20397;-60
2023/06/18 10:02:07;;;;;;;;;;;25.10;87.40;;;;;;5066397;28;20099;-59
2023/06/18 10:04:34;;;;;;;10.38;8.20;;;25.40;85.60;;;;;;5064928;28;19946;-59
2023/06/18 10:07:05;;;;;;;11.60;7.90;;;25.50;83.90;;;;;;5067805;28;20120;-60
2023/06/18 10:09:34;;;;;;;8.82;6.90;;;25.50;88.30;;;;;;5071187;28;20509;-60
2023/06/18 10:12:02;;;;;;;11.38;7.20;;;25.60;84.00;;;;;;5061646;28;20064;-60
2023/06/18 10:14:30;;;;;;;11.20;8.45;;;25.80;85.50;;;;;;5052832;28;20535;-59
2023/06/18 10:17:07;;;;;;;10.75;7.97;;;25.80;83.30;;;;;;5060718;28;20041;-60
2023/06/18 10:19:48;;;;;;;9.23;7.38;;;25.70;86.10;;;;;;5064762;28;20039;-61
2023/06/18 10:22:18;;;;;;;11.25;7.28;;;25.90;84.90;;;;;;5060322;28;20052;-60
2023/06/18 10:25:02;;;;;;;8.07;6.82;;;26.20;84.20;;;;;;5070366;28;20032;-60
2023/06/18 10:27:30;;;;;;;10.02;7.47;;;26.30;82.10;;;;;;5056044;28;20038;-60
2023/06/18 10:29:57;;;;;;;8.85;7.57;;;26.50;81.20;;;;;;5061555;28;20060;-61
2023/06/18 10:32:26;;;;;;;14.20;7.57;;;26.70;85.30;;;;;;5070105;28;20041;-60
2023/06/18 10:34:55;;;;;;;13.82;7.50;;;26.70;83.40;;;;;;5053572;28;20072;-61
2023/06/18 10:37:22;;;;;;;8.52;7.15;;;26.80;82.50;;;;;;5050924;28;20048;-60
2023/06/18 10:39:50;;;;;;;10.52;7.50;;;26.90;83.30;;;;;;5049769;28;20049;-60
2023/06/18 10:42:18;;;;;;;11.50;7.70;;;26.70;81.90;;;;;;5069956;28;20053;-60
2023/06/18 10:44:49;;;;;;;11.63;7.95;;;26.60;86.70;;;;;;5061345;28;20041;-60
2023/06/18 10:47:22;;;;;;;10.70;8.25;;;26.60;85.70;;;;;;5058772;28;20056;-60
2023/06/18 10:50:07;;;;;;;12.60;7.95;;;26.60;87.90;;;;;;5049813;28;20138;-61
2023/06/18 10:52:39;;;;;;;10.68;7.90;;;26.60;86.30;;;;;;5055905;28;20047;-59
2023/06/18 10:55:26;;;;;;;10.57;7.40;;;26.60;85.10;;;;;;5066401;28;20049;-59
2023/06/18 10:58:01;;;;;;;11.30;7.63;;;26.60;86.20;;;;;;5070474;28;20128;-60
2023/06/18 11:00:38;;;;;;;9.15;7.20;;;26.80;85.60;;;;;;5061934;28;20036;-59
2023/06/18 11:03:12;;;;;;;10.05;7.57;;;26.90;84.70;;;;;;5068585;28;20041;-60
2023/06/18 11:05:45;;;;;;;11.02;7.35;;;27.10;85.60;;;;;;5064261;28;20032;-60
2023/06/18 11:08:13;;;;;;;9.20;7.10;;;27.00;83.00;;;;;;5058958;28;20048;-59
2023/06/18 11:10:42;;;;;;;9.10;7.28;;;27.20;84.80;;;;;;5056137;28;20040;-58
2023/06/18 11:13:10;;;;;;;7.97;6.85;;;27.20;85.40;;;;;;5060972;28;20534;-60
2023/06/18 11:15:52;;;;;;;8.85;7.30;;;27.20;85.80;;;;;;5067483;28;20047;-60
2023/06/18 11:18:25;;;;;;;10.55;7.18;;;27.30;87.10;;;;;;5057804;28;20112;-60
2023/06/18 11:20:54;;;;;;;8.93;7.10;;;27.50;81.00;;;;;;5065756;28;20545;-60
2023/06/18 11:23:22;;;;;;;8.90;6.63;;;27.70;79.40;;;;;;5050108;28;20040;-60
2023/06/18 11:25:49;;;;;;;9.10;6.68;;;27.80;81.00;;;;;;5050556;28;20068;-60
2023/06/18 11:28:17;;;;;;;9.80;6.70;;;27.90;79.40;;;;;;5052315;28;20049;-61
2023/06/18 11:31:04;;;;;;;10.30;7.15;;;27.90;75.70;;;;;;5062254;28;20490;-59
2023/06/18 11:33:31;;;;;;;8.40;7.00;;;27.90;77.40;;;;;;5031990;28;20135;-60
2023/06/18 11:36:11;;;;;;;;;;;28.00;75.10;;;;;;5050290;28;20041;-61
2023/06/18 11:38:39;;;;;;;8.98;6.18;;;28.20;75.90;;;;;;5049482;28;19920;-61
2023/06/18 11:41:07;;;;;;;13.50;7.05;;;28.30;73.80;;;;;;5062274;28;20068;-60
2023/06/18 11:43:49;;;;;;;12.02;7.63;;;28.20;77.00;;;;;;5056890;28;20033;-60
2023/06/18 11:46:27;;;;;;;9.00;6.88;;;28.40;73.30;;;;;;5061513;28;20055;-60
2023/06/18 11:48:55;;;;;;;8.25;5.90;;;28.60;69.80;;;;;;5066519;28;20045;-60
2023/06/18 11:51:24;;;;;;;9.65;6.95;;;28.60;70.40;;;;;;5054658;28;20048;-60
2023/06/18 11:53:55;;;;;;;7.88;6.28;;;28.80;70.60;;;;;;5073988;28;20041;-61
2023/06/18 11:56:25;;;;;;;7.57;6.78;;;28.80;73.00;;;;;;5052077;28;20041;-60
2023/06/18 11:58:54;;;;;;;7.88;6.47;;;28.80;73.00;;;;;;5063106;28;20387;-61
2023/06/18 12:01:31;;;;;;;8.77;6.65;;;28.80;72.80;;;;;;5064103;28;20424;-60
2023/06/18 12:04:07;;;;;;;9.73;6.93;;;28.80;71.00;;;;;;5065293;28;20505;-60
2023/06/18 12:06:36;;;;;;;8.43;7.18;;;29.00;71.20;;;;;;5058635;28;20501;-61
2023/06/18 12:09:10;;;;;;;9.80;7.25;;;29.10;73.40;;;;;;5061915;28;20072;-60
2023/06/18 12:11:40;;;;;;;9.52;6.80;;;28.90;68.00;;;;;;5066811;28;20033;-61
2023/06/18 12:14:14;;;;;;;7.35;6.47;;;28.90;70.00;;;;;;5072249;28;20509;-61
2023/06/18 12:16:45;;;;;;;8.73;6.88;;;28.90;71.90;;;;;;5055858;28;20047;-60
2023/06/18 12:19:12;;;;;;;8.30;6.82;;;28.80;76.00;;;;;;5071216;28;20113;-61
2023/06/18 12:21:39;;;;;;;9.10;7.13;;;28.80;73.50;;;;;;5063638;28;20040;-61
2023/06/18 12:24:06;;;;;;;10.18;7.35;;;28.80;70.40;;;;;;5072865;28;20055;-61
2023/06/18 12:26:33;;;;;;;;;;;28.50;72.40;;;;;;5058190;28;20048;-61
2023/06/18 12:29:01;;;;;;;12.32;7.47;;;28.50;72.80;;;;;;5064934;28;19921;-61
2023/06/18 12:31:28;;;;;;;10.20;7.35;;;28.50;74.30;;;;;;5052140;28;20049;-59
2023/06/18 12:33:55;;;;;;;;;;;28.60;72.70;;;;;;5052226;28;20116;-60
2023/06/18 12:36:29;;;;;;;10.85;7.03;;;28.60;72.40;;;;;;5055306;28;19999;-60
2023/06/18 12:38:56;;;;;;;9.65;7.18;;;28.60;71.70;;;;;;5065028;28;20041;-60
2023/06/18 12:41:29;;;;;;;8.85;7.13;;;28.70;76.30;;;;;;5063310;28;20599;-60
2023/06/18 12:43:57;;;;;;;10.38;7.82;;;28.80;74.70;;;;;;5061839;28;20502;-59
2023/06/18 12:46:27;;;;;;;9.57;6.90;;;28.60;72.40;;;;;;5066945;28;20502;-60
2023/06/18 12:48:57;;;;;;;11.82;7.60;;;28.60;74.30;;;;;;5070111;28;20489;-60